createdAt,value
2022-08-11T00:00:36.720Z,17.36
2022-08-11T00:02:36.783Z,17.34
2022-08-11T00:04:36.680Z,17.37
2022-08-11T00:06:36.686Z,17.38
2022-08-11T00:08:36.677Z,17.37
2022-08-11T00:10:36.693Z,17.3
2022-08-11T00:12:37.330Z,17.28
2022-08-11T00:15:41.946Z,17.16
2022-08-11T00:17:41.900Z,17.19
2022-08-11T00:20:11.305Z,17.17
2022-08-11T00:22:02.160Z,17.17
2022-08-11T00:23:41.896Z,17.07
2022-08-11T00:25:41.901Z,17.11
2022-08-11T00:27:41.891Z,17.13
2022-08-11T00:30:25.558Z,17.15
2022-08-11T00:32:25.521Z,17.13
2022-08-11T00:34:25.525Z,17.13
2022-08-11T00:36:25.812Z,17.14
2022-08-11T00:38:25.516Z,17.11
2022-08-11T00:40:25.515Z,17.07
2022-08-11T00:42:25.520Z,16.99
2022-08-11T00:45:41.146Z,16.98
2022-08-11T00:47:41.139Z,16.99
2022-08-11T00:49:41.181Z,16.93
2022-08-11T00:51:57.606Z,16.95
2022-08-11T00:53:41.169Z,16.92
2022-08-11T00:55:41.136Z,16.96
2022-08-11T00:57:41.228Z,16.96
2022-08-11T01:01:00.605Z,16.93
2022-08-11T01:03:00.440Z,16.91
2022-08-11T01:05:00.474Z,16.94
2022-08-11T01:07:00.483Z,16.88
2022-08-11T01:09:00.446Z,16.85
2022-08-11T01:11:00.442Z,16.84
2022-08-11T01:13:00.444Z,16.76
2022-08-11T01:16:16.316Z,16.77
2022-08-11T01:18:16.307Z,16.7
2022-08-11T01:20:39.806Z,16.75
2022-08-11T01:22:16.308Z,16.85
2022-08-11T01:24:16.346Z,16.84
2022-08-11T01:26:16.312Z,16.89
2022-08-11T01:28:16.300Z,16.86
2022-08-11T01:30:49.837Z,16.88
2022-08-11T01:32:49.817Z,16.88
2022-08-11T01:34:49.816Z,16.73
2022-08-11T01:36:53.402Z,16.73
2022-08-11T01:38:49.814Z,16.71
2022-08-11T01:40:49.863Z,16.68
2022-08-11T01:42:49.821Z,16.73
2022-08-11T01:44:49.803Z,16.77
2022-08-11T01:46:44.862Z,16.78
2022-08-11T01:48:44.849Z,16.75
2022-08-11T01:50:44.822Z,16.68
2022-08-11T01:52:45.157Z,16.63
2022-08-11T01:54:44.859Z,16.54
2022-08-11T01:56:44.830Z,16.55
2022-08-11T01:58:44.834Z,16.62
2022-08-11T02:01:59.952Z,16.57
2022-08-11T02:03:59.904Z,16.63
2022-08-11T02:05:59.920Z,16.61
2022-08-11T02:07:59.953Z,16.58
2022-08-11T02:09:59.952Z,16.52
2022-08-11T02:11:59.943Z,16.49
2022-08-11T02:13:59.926Z,16.36
2022-08-11T02:16:37.696Z,16.28
2022-08-11T02:18:37.727Z,16.32
2022-08-11T02:20:37.682Z,16.42
2022-08-11T02:22:37.794Z,16.42
2022-08-11T02:24:37.697Z,16.35
2022-08-11T02:26:37.676Z,16.36
2022-08-11T02:28:40.133Z,16.4
2022-08-11T02:32:25.435Z,16.34
2022-08-11T02:34:14.992Z,16.26
2022-08-11T02:36:14.988Z,16.36
2022-08-11T02:38:14.984Z,16.34
2022-08-11T02:40:14.985Z,16.29
2022-08-11T02:42:31.733Z,16.32
2022-08-11T02:44:15.028Z,16.3
2022-08-11T02:46:51.102Z,16.29
2022-08-11T02:48:51.062Z,16.31
2022-08-11T02:50:51.056Z,16.3
2022-08-11T02:52:51.078Z,16.34
2022-08-11T02:54:51.061Z,16.26
2022-08-11T02:56:51.103Z,16.3
2022-08-11T02:58:51.040Z,16.39
2022-08-11T03:01:48.107Z,16.34
2022-08-11T03:03:48.056Z,16.3
2022-08-11T03:05:48.044Z,16.37
2022-08-11T03:07:48.084Z,16.31
2022-08-11T03:09:48.040Z,16.34
2022-08-11T03:11:48.058Z,16.38
2022-08-11T03:13:48.035Z,16.37
2022-08-11T03:15:48.037Z,16.27
2022-08-11T03:17:24.633Z,16.26
2022-08-11T03:19:24.578Z,16.26
2022-08-11T03:21:24.596Z,16.33
2022-08-11T03:23:24.579Z,16.34
2022-08-11T03:25:24.576Z,16.29
2022-08-11T03:27:24.631Z,16.38
2022-08-11T03:29:25.003Z,16.37
2022-08-11T03:32:24.117Z,16.42
2022-08-11T03:34:24.072Z,16.31
2022-08-11T03:36:24.073Z,16.26
2022-08-11T03:38:24.131Z,16.28
2022-08-11T03:40:24.076Z,16.28
2022-08-11T03:42:24.090Z,16.32
2022-08-11T03:44:24.129Z,16.46
2022-08-11T03:47:52.510Z,17.24
2022-08-11T03:49:47.887Z,18.08
2022-08-11T03:51:51.625Z,19.18
2022-08-11T03:53:47.926Z,19.91
2022-08-11T03:55:47.886Z,20.54
2022-08-11T03:57:47.868Z,21.06
2022-08-11T03:59:47.877Z,21.77
2022-08-11T04:02:44.356Z,22.71
2022-08-11T04:04:45.154Z,23.33
2022-08-11T04:06:44.292Z,24.09
2022-08-11T04:08:44.323Z,24.79
2022-08-11T04:10:44.273Z,25.41
2022-08-11T04:12:47.531Z,25.83
2022-08-11T04:14:44.280Z,26.16
2022-08-11T04:18:11.602Z,26.65
2022-08-11T04:20:11.605Z,26.08
2022-08-11T04:22:11.708Z,26.45
2022-08-11T04:24:13.501Z,26.79
2022-08-11T04:26:11.674Z,27.04
2022-08-11T04:28:18.858Z,26.97
2022-08-11T04:30:12.258Z,26.78
2022-08-11T04:33:06.728Z,25
2022-08-11T04:35:06.720Z,24.72
2022-08-11T04:37:06.956Z,24.87
2022-08-11T04:39:06.887Z,24.86
2022-08-11T04:41:06.723Z,25.6
2022-08-11T04:43:06.788Z,26.83
2022-08-11T04:45:06.722Z,27.98
2022-08-11T04:48:31.839Z,30.73
2022-08-11T04:50:31.781Z,31.62
2022-08-11T04:52:36.119Z,31.66
2022-08-11T04:54:31.777Z,31.9
2022-08-11T04:56:31.782Z,32.25
2022-08-11T04:58:31.838Z,32.01
2022-08-11T05:00:31.781Z,30.7
2022-08-11T05:03:47.249Z,31.48
2022-08-11T05:05:54.790Z,32.13
2022-08-11T05:07:47.237Z,32.16
2022-08-11T05:09:47.249Z,31.13
2022-08-11T05:11:47.239Z,30.21
2022-08-11T05:13:47.253Z,28.74
2022-08-11T05:15:51.355Z,27.93
2022-08-11T05:18:27.155Z,27.96
2022-08-11T05:20:27.194Z,27.63
2022-08-11T05:22:27.194Z,27.3
2022-08-11T05:24:27.139Z,26.76
2022-08-11T05:26:45.767Z,26.48
2022-08-11T05:28:27.178Z,26.02
2022-08-11T05:30:27.135Z,25.33
2022-08-11T05:33:41.362Z,26
2022-08-11T05:36:01.135Z,26.23
2022-08-11T05:37:41.322Z,26.1
2022-08-11T05:39:41.375Z,26.12
2022-08-11T05:41:41.330Z,25.92
2022-08-11T05:44:19.464Z,25.88
2022-08-11T05:45:57.251Z,25.95
2022-08-11T05:49:31.781Z,25.96
2022-08-11T05:51:30.803Z,26.16
2022-08-11T05:53:30.429Z,25.94
2022-08-11T05:55:30.866Z,26.44
2022-08-11T05:57:38.723Z,26.16
2022-08-11T05:59:30.428Z,26.25
2022-08-11T06:01:30.487Z,26.65
2022-08-11T06:04:19.083Z,26.01
2022-08-11T06:06:19.142Z,26
2022-08-11T06:08:19.090Z,25.92
2022-08-11T06:10:19.106Z,25.92
2022-08-11T06:12:19.093Z,26.21
2022-08-11T06:14:19.143Z,25.92
2022-08-11T06:16:19.086Z,26.34
2022-08-11T06:19:00.780Z,26
2022-08-11T06:21:00.736Z,26.37
2022-08-11T06:23:00.731Z,26.01
2022-08-11T06:25:00.757Z,26.24
2022-08-11T06:27:12.166Z,25.98
2022-08-11T06:29:01.262Z,26.45
2022-08-11T06:31:00.727Z,26.17
2022-08-11T06:33:00.754Z,25.93
2022-08-11T06:34:12.053Z,26.14
2022-08-11T06:36:12.112Z,26.41
2022-08-11T06:38:12.048Z,26.35
2022-08-11T06:40:12.038Z,26.23
2022-08-11T06:42:12.058Z,25.99
2022-08-11T06:44:12.040Z,26.32
2022-08-11T06:46:12.094Z,26.58
2022-08-11T06:48:12.079Z,26.4
2022-08-11T06:49:53.473Z,25.88
2022-08-11T06:51:53.477Z,25.95
2022-08-11T06:53:56.438Z,26.34
2022-08-11T06:55:55.352Z,26.07
2022-08-11T06:57:53.520Z,25.19
2022-08-11T06:59:53.467Z,25.83
2022-08-11T07:01:53.548Z,26.3
2022-08-11T07:05:14.293Z,26.96
2022-08-11T07:07:14.346Z,26.96
2022-08-11T07:09:14.309Z,27
2022-08-11T07:11:14.339Z,27.03
2022-08-11T07:13:43.204Z,26.95
2022-08-11T07:15:14.286Z,27.18
2022-08-11T07:17:14.335Z,27.38
2022-08-11T07:20:10.087Z,27.09
2022-08-11T07:22:10.052Z,27.01
2022-08-11T07:24:10.694Z,26.85
2022-08-11T07:26:10.114Z,26.83
2022-08-11T07:28:10.052Z,27.14
2022-08-11T07:30:10.125Z,27
2022-08-11T07:32:10.059Z,27.43
2022-08-11T07:35:39.892Z,27.83
2022-08-11T07:37:39.821Z,27.97
2022-08-11T07:39:39.839Z,27.29
2022-08-11T07:41:39.877Z,27.52
2022-08-11T07:43:39.825Z,27.38
2022-08-11T07:45:39.883Z,27.3
2022-08-11T07:47:39.817Z,27.53
2022-08-11T07:49:52.532Z,27.43
2022-08-11T07:51:52.525Z,27.71
2022-08-11T07:53:58.224Z,27.74
2022-08-11T07:55:53.458Z,28.16
2022-08-11T07:58:14.405Z,28.23
2022-08-11T07:59:58.654Z,28.51
2022-08-11T08:01:52.690Z,28.24
2022-08-11T08:03:54.281Z,28.26
2022-08-11T08:05:52.998Z,28.18
2022-08-11T08:07:53.050Z,27.51
2022-08-11T08:09:56.077Z,28.31
2022-08-11T08:11:55.659Z,28.66
2022-08-11T08:13:52.988Z,28.69
2022-08-11T08:15:53.042Z,28.77
2022-08-11T08:18:08.902Z,27.55
2022-08-11T08:20:46.904Z,28.18
2022-08-11T08:22:48.618Z,28.14
2022-08-11T08:24:46.881Z,28.09
2022-08-11T08:26:48.386Z,28.67
2022-08-11T08:28:46.887Z,29.14
2022-08-11T08:30:46.917Z,29
2022-08-11T08:32:46.933Z,28.51
2022-08-11T08:35:54.633Z,28.09
2022-08-11T08:37:53.656Z,28.38
2022-08-11T08:39:53.722Z,28.37
2022-08-11T08:41:53.702Z,28.02
2022-08-11T08:43:53.652Z,27.21
2022-08-11T08:46:06.170Z,27.24
2022-08-11T08:47:59.664Z,28.31
2022-08-11T08:50:49.114Z,28.45
2022-08-11T08:52:49.580Z,28.01
2022-08-11T08:54:49.158Z,28.02
2022-08-11T08:56:49.121Z,28.05
2022-08-11T08:58:49.117Z,28.51
2022-08-11T09:00:49.118Z,28.54
2022-08-11T09:02:49.307Z,29.09
2022-08-11T09:05:54.971Z,29.37
2022-08-11T09:07:54.969Z,28.26
2022-08-11T09:09:54.999Z,28.13
2022-08-11T09:11:55.017Z,28.94
2022-08-11T09:14:03.354Z,29.17
2022-08-11T09:15:56.451Z,28.96
2022-08-11T09:17:54.961Z,29.18
2022-08-11T09:21:34.247Z,29.3
2022-08-11T09:25:18.219Z,28.19
2022-08-11T09:27:18.185Z,28.1
2022-08-11T09:29:18.172Z,28.72
2022-08-11T09:31:18.206Z,29.1
2022-08-11T09:33:18.168Z,29.52
2022-08-11T09:36:13.376Z,30.18
2022-08-11T09:38:13.371Z,30.36
2022-08-11T09:40:13.374Z,29.45
2022-08-11T09:42:16.472Z,28.53
2022-08-11T09:44:13.363Z,29.58
2022-08-11T09:46:13.377Z,30.13
2022-08-11T09:48:13.364Z,30.05
2022-08-11T09:52:01.990Z,29.46
2022-08-11T09:54:02.794Z,29.13
2022-08-11T09:55:51.907Z,29.91
2022-08-11T09:57:51.887Z,29.65
2022-08-11T09:59:51.939Z,28.44
2022-08-11T10:01:51.898Z,28.3
2022-08-11T10:03:51.896Z,28
2022-08-11T10:07:16.019Z,29.01
2022-08-11T10:09:16.010Z,29.79
2022-08-11T10:11:16.022Z,30.23
2022-08-11T10:14:04.849Z,30.75
2022-08-11T10:15:18.596Z,30.21
2022-08-11T10:17:15.995Z,30.67
2022-08-11T10:19:16.039Z,30.68
2022-08-11T10:21:49.025Z,30.3
2022-08-11T10:24:00.761Z,30.2
2022-08-11T10:25:49.094Z,29.57
2022-08-11T10:28:18.630Z,29.08
2022-08-11T10:29:49.520Z,29.21
2022-08-11T10:31:57.325Z,29.36
2022-08-11T10:33:57.756Z,29.35
2022-08-11T10:38:07.072Z,30.07
2022-08-11T10:39:33.154Z,29.49
2022-08-11T10:41:33.064Z,29.68
2022-08-11T10:43:56.882Z,30.25
2022-08-11T10:45:33.065Z,30.25
2022-08-11T10:47:33.046Z,30.4
2022-08-11T10:49:33.056Z,30.89
2022-08-11T10:51:54.046Z,29.76
2022-08-11T10:53:53.875Z,28.98
2022-08-11T10:55:53.855Z,29.17
2022-08-11T10:58:04.510Z,29.61
2022-08-11T10:59:53.841Z,30.06
2022-08-11T11:01:53.877Z,29.08
2022-08-11T11:03:53.840Z,29.61
2022-08-11T11:06:13.152Z,30.03
2022-08-11T11:07:33.576Z,30.43
2022-08-11T11:09:30.712Z,30.61
2022-08-11T11:11:30.771Z,29.94
2022-08-11T11:13:30.837Z,30.19
2022-08-11T11:15:30.713Z,29.5
2022-08-11T11:17:30.709Z,29.97
2022-08-11T11:19:30.739Z,30.52
2022-08-11T11:22:30.456Z,30.44
2022-08-11T11:24:30.404Z,30.2
2022-08-11T11:26:30.400Z,30.15
2022-08-11T11:28:30.372Z,30.18
2022-08-11T11:30:30.379Z,29.98
2022-08-11T11:32:30.394Z,30.17
2022-08-11T11:34:30.382Z,30.28
2022-08-11T11:36:30.393Z,30.34
2022-08-11T11:38:32.762Z,30.26
2022-08-11T11:40:32.717Z,29.86
2022-08-11T11:42:32.700Z,29.9
2022-08-11T11:44:32.711Z,29.64
2022-08-11T11:46:32.709Z,30.11
2022-08-11T11:48:32.758Z,29.82
2022-08-11T11:50:33.208Z,29.62
2022-08-11T11:53:20.488Z,30.08
2022-08-11T11:55:20.429Z,30.23
2022-08-11T11:57:20.442Z,29.98
2022-08-11T11:59:20.469Z,30.13
2022-08-11T12:01:20.429Z,29.78
2022-08-11T12:03:20.529Z,29.64
2022-08-11T12:05:20.427Z,29.83
2022-08-11T12:08:48.811Z,29.36
2022-08-11T12:10:48.866Z,29.1
2022-08-11T12:12:48.816Z,29.53
2022-08-11T12:14:48.809Z,29.55
2022-08-11T12:16:48.790Z,29.71
2022-08-11T12:18:49.560Z,29.76
2022-08-11T12:20:48.816Z,29.68
2022-08-11T12:23:53.256Z,29.86
2022-08-11T12:26:10.225Z,30.21
2022-08-11T12:27:53.252Z,30.05
2022-08-11T12:29:55.445Z,29.84
2022-08-11T12:31:53.284Z,29.68
2022-08-11T12:33:53.262Z,29.49
2022-08-11T12:36:00.428Z,29.45
2022-08-11T12:38:31.470Z,29.42
2022-08-11T12:40:37.837Z,29.88
2022-08-11T12:42:31.495Z,29.67
2022-08-11T12:44:31.460Z,30
2022-08-11T12:46:31.416Z,29.81
2022-08-11T12:48:58.202Z,29.66
2022-08-11T12:50:31.419Z,29.22
2022-08-11T12:54:22.433Z,29.42
2022-08-11T12:56:22.548Z,29.08
2022-08-11T12:58:22.450Z,29.27
2022-08-11T13:00:22.446Z,28.99
2022-08-11T13:02:22.487Z,29.22
2022-08-11T13:04:22.603Z,29.28
2022-08-11T13:06:22.534Z,29.38
2022-08-11T13:08:57.762Z,29.41
2022-08-11T13:10:55.378Z,29.46
2022-08-11T13:12:55.226Z,29.43
2022-08-11T13:14:55.239Z,29.45
2022-08-11T13:16:55.176Z,29.46
2022-08-11T13:18:55.557Z,29.59
2022-08-11T13:20:55.242Z,29.28
2022-08-11T13:24:21.839Z,29.15
2022-08-11T13:26:24.913Z,29.38
2022-08-11T13:28:21.833Z,28.91
2022-08-11T13:30:21.833Z,28.71
2022-08-11T13:32:21.838Z,28.92
2022-08-11T13:34:21.828Z,28.88
2022-08-11T13:36:21.840Z,28.58
2022-08-11T13:39:15.399Z,28.9
2022-08-11T13:41:15.872Z,28.6
2022-08-11T13:43:15.137Z,28.63
2022-08-11T13:45:15.188Z,29.01
2022-08-11T13:47:15.194Z,28.89
2022-08-11T13:49:15.285Z,28.8
2022-08-11T13:51:15.325Z,29.09
2022-08-11T13:54:16.065Z,29.32
2022-08-11T13:56:15.970Z,29.31
2022-08-11T13:58:19.656Z,29.24
2022-08-11T14:00:25.155Z,29.4
2022-08-11T14:02:20.988Z,29.13
2022-08-11T14:04:29.306Z,29.1
2022-08-11T14:06:15.958Z,28.86
2022-08-11T14:09:39.698Z,28.59
2022-08-11T14:12:20.690Z,28.53
2022-08-11T14:13:41.519Z,28.38
2022-08-11T14:15:39.685Z,28.5
2022-08-11T14:17:47.076Z,28.54
2022-08-11T14:19:39.677Z,28.79
2022-08-11T14:21:39.787Z,28.2
2022-08-11T14:24:20.849Z,28.35
2022-08-11T14:26:20.782Z,28.37
2022-08-11T14:28:32.823Z,28.36
2022-08-11T14:30:20.826Z,28.27
2022-08-11T14:32:20.836Z,28.34
2022-08-11T14:34:20.773Z,28.18
2022-08-11T14:36:20.782Z,28.45
2022-08-11T14:38:20.764Z,28.05
2022-08-11T14:40:13.379Z,28.1
2022-08-11T14:42:13.530Z,28.26
2022-08-11T14:44:14.679Z,28.19
2022-08-11T14:46:13.331Z,27.94
2022-08-11T14:48:13.299Z,27.76
2022-08-11T14:50:13.383Z,27.57
2022-08-11T14:52:13.522Z,27.86
2022-08-11T14:55:35.733Z,27.62
2022-08-11T14:57:54.578Z,27.59
2022-08-11T14:59:35.749Z,27.07
2022-08-11T15:01:35.812Z,27.07
2022-08-11T15:03:35.797Z,27.21
2022-08-11T15:05:35.777Z,27.02
2022-08-11T15:07:35.738Z,26.81
2022-08-11T15:10:28.194Z,26.26
2022-08-11T15:12:31.325Z,26.44
2022-08-11T15:14:28.242Z,26.62
2022-08-11T15:16:28.137Z,26.29
2022-08-11T15:18:28.285Z,26.32
2022-08-11T15:20:28.381Z,26.59
2022-08-11T15:22:28.802Z,26.68
2022-08-11T15:25:41.010Z,26.42
2022-08-11T15:27:41.287Z,26.18
2022-08-11T15:29:41.099Z,26.25
2022-08-11T15:31:41.030Z,26.07
2022-08-11T15:33:41.047Z,26.49
2022-08-11T15:35:41.009Z,26.77
2022-08-11T15:37:41.217Z,26.68
2022-08-11T15:40:50.012Z,26.48
2022-08-11T15:42:49.999Z,26.47
2022-08-11T15:45:04.214Z,26.5
2022-08-11T15:46:50.027Z,26.36
2022-08-11T15:48:50.025Z,26.52
2022-08-11T15:50:50.014Z,26.68
2022-08-11T15:52:50.229Z,26.47
2022-08-11T15:56:02.702Z,26.05
2022-08-11T15:58:02.713Z,26.38
2022-08-11T16:00:02.690Z,26.57
2022-08-11T16:02:02.758Z,26.56
2022-08-11T16:04:07.071Z,26.41
2022-08-11T16:06:02.679Z,26.44
2022-08-11T16:08:02.752Z,26.07
2022-08-11T16:11:09.735Z,25.82
2022-08-11T16:13:09.800Z,26.07
2022-08-11T16:15:09.739Z,26.36
2022-08-11T16:17:09.718Z,26.51
2022-08-11T16:19:09.773Z,26.47
2022-08-11T16:21:09.774Z,26.1
2022-08-11T16:23:09.769Z,26.18
2022-08-11T16:27:06.582Z,26.19
2022-08-11T16:28:00.592Z,26.31
2022-08-11T16:30:00.685Z,26.27
2022-08-11T16:32:00.599Z,26.3
2022-08-11T16:34:00.596Z,26.04
2022-08-11T16:36:00.616Z,26.06
2022-08-11T16:38:00.577Z,26.04
2022-08-11T16:41:38.909Z,25.83
2022-08-11T16:43:39.253Z,25.94
2022-08-11T16:45:38.911Z,26.04
2022-08-11T16:48:03.733Z,26.02
2022-08-11T16:49:38.898Z,25.91
2022-08-11T16:51:41.808Z,25.5
2022-08-11T16:53:45.893Z,25.79
2022-08-11T16:56:15.580Z,25.62
2022-08-11T16:58:15.486Z,25.59
2022-08-11T17:00:16.013Z,25.66
2022-08-11T17:02:15.456Z,24.76
2022-08-11T17:04:15.455Z,24.99
2022-08-11T17:06:15.388Z,24.89
2022-08-11T17:08:15.455Z,24.88
2022-08-11T17:11:11.769Z,25.19
2022-08-11T17:13:11.700Z,25.21
2022-08-11T17:15:11.701Z,25.13
2022-08-11T17:17:11.721Z,25.16
2022-08-11T17:19:11.759Z,25.14
2022-08-11T17:21:11.743Z,25.15
2022-08-11T17:23:12.908Z,25.18
2022-08-11T17:25:11.723Z,25.18
2022-08-11T17:27:03.254Z,25.14
2022-08-11T17:29:02.062Z,25.15
2022-08-11T17:31:02.095Z,25.1
2022-08-11T17:33:02.049Z,25.06
2022-08-11T17:35:02.030Z,25.05
2022-08-11T17:37:02.032Z,24.98
2022-08-11T17:39:02.018Z,24.95
2022-08-11T17:41:25.642Z,24.84
2022-08-11T17:43:25.653Z,24.76
2022-08-11T17:45:25.633Z,24.77
2022-08-11T17:47:25.798Z,24.8
2022-08-11T17:49:25.714Z,24.75
2022-08-11T17:51:25.628Z,24.73
2022-08-11T17:53:25.616Z,24.65
2022-08-11T17:55:51.360Z,24.56
2022-08-11T17:57:06.147Z,24.52
2022-08-11T17:59:06.143Z,24.46
2022-08-11T18:01:09.021Z,24.46
2022-08-11T18:03:06.371Z,24.41
2022-08-11T18:05:12.438Z,24.35
2022-08-11T18:07:06.247Z,24.26
2022-08-11T18:09:06.305Z,24.2
2022-08-11T18:12:53.785Z,24.11
2022-08-11T18:14:53.748Z,24.11
2022-08-11T18:16:53.776Z,24.08
2022-08-11T18:18:53.754Z,24.01
2022-08-11T18:20:53.771Z,24.04
2022-08-11T18:22:53.757Z,24.05
2022-08-11T18:24:53.733Z,23.99
2022-08-11T18:27:08.128Z,23.98
2022-08-11T18:29:08.068Z,23.93
2022-08-11T18:31:12.440Z,23.94
2022-08-11T18:33:40.233Z,23.87
2022-08-11T18:35:08.050Z,23.86
2022-08-11T18:37:08.062Z,23.65
2022-08-11T18:39:08.077Z,23.61
2022-08-11T18:41:08.054Z,23.62
2022-08-11T18:43:10.324Z,23.47
2022-08-11T18:45:10.321Z,23.43
2022-08-11T18:47:10.328Z,23.44
2022-08-11T18:49:14.620Z,23.38
2022-08-11T18:51:30.274Z,23.25
2022-08-11T18:53:10.382Z,23.25
2022-08-11T18:55:10.428Z,23.21
2022-08-11T18:58:14.027Z,23.24
2022-08-11T19:00:14.077Z,23.3
2022-08-11T19:02:14.164Z,23.25
2022-08-11T19:04:17.160Z,23.27
2022-08-11T19:06:37.942Z,23.21
2022-08-11T19:08:14.156Z,23.09
2022-08-11T19:10:14.380Z,23.06
2022-08-11T19:13:13.414Z,22.91
2022-08-11T19:15:13.502Z,22.87
2022-08-11T19:17:13.425Z,22.81
2022-08-11T19:19:13.434Z,22.83
2022-08-11T19:21:13.508Z,22.77
2022-08-11T19:23:13.498Z,22.63
2022-08-11T19:25:13.435Z,22.67
2022-08-11T19:28:33.482Z,22.56
2022-08-11T19:30:33.461Z,22.48
2022-08-11T19:32:33.452Z,22.62
2022-08-11T19:34:33.478Z,22.63
2022-08-11T19:36:33.496Z,22.68
2022-08-11T19:38:33.466Z,22.63
2022-08-11T19:40:33.447Z,22.63
2022-08-11T19:43:51.738Z,22.61
2022-08-11T19:45:52.220Z,22.56
2022-08-11T19:48:03.304Z,22.62
2022-08-11T19:49:51.782Z,22.65
2022-08-11T19:51:53.588Z,22.6
2022-08-11T19:53:51.713Z,22.63
2022-08-11T19:55:51.743Z,22.66
2022-08-11T19:58:13.761Z,22.65
2022-08-11T20:00:13.896Z,22.77
2022-08-11T20:02:14.743Z,22.59
2022-08-11T20:04:13.770Z,22.71
2022-08-11T20:06:13.718Z,22.8
2022-08-11T20:08:13.788Z,22.75
2022-08-11T20:10:13.780Z,22.77
2022-08-11T20:12:13.726Z,22.78
2022-08-11T20:13:27.793Z,22.77
2022-08-11T20:15:27.876Z,22.74
2022-08-11T20:17:27.758Z,22.76
2022-08-11T20:19:55.845Z,22.72
2022-08-11T20:21:29.811Z,22.76
2022-08-11T20:23:27.772Z,22.67
2022-08-11T20:25:27.794Z,22.64
2022-08-11T20:29:25.225Z,22.45
2022-08-11T20:31:25.220Z,22.36
2022-08-11T20:33:25.184Z,22.39
2022-08-11T20:35:25.263Z,22.33
2022-08-11T20:37:25.158Z,22.26
2022-08-11T20:39:25.195Z,22.32
2022-08-11T20:41:25.182Z,22.33
2022-08-11T20:44:05.233Z,22.2
2022-08-11T20:46:00.820Z,22.23
2022-08-11T20:48:01.255Z,22.18
2022-08-11T20:50:00.751Z,22.15
2022-08-11T20:52:00.801Z,22.11
2022-08-11T20:54:05.618Z,22.08
2022-08-11T20:56:00.748Z,21.93
2022-08-11T20:59:38.589Z,21.86
2022-08-11T21:01:38.235Z,21.83
2022-08-11T21:03:36.007Z,21.77
2022-08-11T21:06:05.529Z,21.71
2022-08-11T21:07:34.390Z,21.69
2022-08-11T21:09:58.209Z,21.65
2022-08-11T21:11:34.354Z,21.6
2022-08-11T21:14:19.021Z,21.62
2022-08-11T21:16:22.740Z,21.59
2022-08-11T21:18:27.429Z,21.56
2022-08-11T21:20:20.514Z,21.44
2022-08-11T21:22:19.081Z,21.38
2022-08-11T21:24:19.027Z,21.33
2022-08-11T21:26:19.034Z,21.31
2022-08-11T21:29:18.851Z,21.36
2022-08-11T21:31:18.876Z,21.41
2022-08-11T21:33:18.858Z,21.4
2022-08-11T21:35:18.845Z,21.36
2022-08-11T21:37:18.841Z,21.35
2022-08-11T21:39:18.911Z,21.39
2022-08-11T21:41:18.838Z,21.39
2022-08-11T21:45:05.487Z,21.44
2022-08-11T21:47:05.465Z,21.49
2022-08-11T21:49:05.516Z,21.42
2022-08-11T21:51:05.460Z,21.37
2022-08-11T21:53:05.463Z,21.37
2022-08-11T21:55:05.476Z,21.34
2022-08-11T21:57:05.449Z,21.45
2022-08-11T22:00:25.000Z,21.49
2022-08-11T22:02:24.967Z,21.39
2022-08-11T22:04:25.018Z,21.39
2022-08-11T22:06:24.977Z,21.4
2022-08-11T22:08:24.971Z,21.47
2022-08-11T22:10:27.419Z,21.5
2022-08-11T22:12:29.436Z,21.44
2022-08-11T22:14:50.164Z,21.38
2022-08-11T22:16:50.034Z,21.39
2022-08-11T22:18:50.114Z,21.33
2022-08-11T22:20:50.023Z,21.34
2022-08-11T22:22:52.653Z,21.35
2022-08-11T22:24:50.008Z,21.3
2022-08-11T22:26:50.008Z,21.39
2022-08-11T22:30:26.304Z,21.49
2022-08-11T22:32:26.285Z,21.56
2022-08-11T22:34:26.300Z,21.53
2022-08-11T22:36:26.281Z,21.47
2022-08-11T22:38:26.245Z,21.44
2022-08-11T22:40:26.296Z,21.45
2022-08-11T22:42:32.214Z,21.43
2022-08-11T22:45:07.417Z,21.44
2022-08-11T22:47:07.404Z,21.5
2022-08-11T22:49:07.415Z,21.54
2022-08-11T22:51:07.469Z,21.46
2022-08-11T22:53:07.408Z,21.51
2022-08-11T22:55:07.429Z,21.48
2022-08-11T22:57:07.401Z,21.44
2022-08-11T22:59:07.436Z,21.41
2022-08-11T23:00:45.920Z,21.36
2022-08-11T23:02:45.930Z,21.36
2022-08-11T23:04:45.924Z,21.35
2022-08-11T23:06:45.949Z,21.43
2022-08-11T23:08:45.937Z,21.44
2022-08-11T23:10:45.911Z,21.39
2022-08-11T23:12:47.513Z,21.41
2022-08-11T23:15:29.271Z,21.42
2022-08-11T23:17:29.320Z,21.46
2022-08-11T23:19:59.941Z,21.45
2022-08-11T23:21:29.287Z,21.38
2022-08-11T23:23:29.308Z,21.38
2022-08-11T23:25:29.273Z,21.32
2022-08-11T23:27:29.274Z,21.26
2022-08-11T23:30:38.256Z,21.24
2022-08-11T23:32:38.325Z,21.15
2022-08-11T23:35:03.240Z,21.17
2022-08-11T23:36:46.958Z,21.18
2022-08-11T23:38:38.284Z,21.16
2022-08-11T23:40:38.274Z,21.16
2022-08-11T23:42:38.288Z,21.14
2022-08-11T23:46:33.725Z,21.05
2022-08-11T23:48:33.754Z,20.86
2022-08-11T23:50:33.709Z,20.9
2022-08-11T23:52:33.816Z,20.9
2022-08-11T23:54:37.251Z,20.94
2022-08-11T23:56:33.715Z,20.85
2022-08-11T23:58:33.721Z,21.01
